Terminal Aerodrome Forecast
Issued by NWS

Home | Current Version | Previous Version | Graphics & Text | Print | Product List | Glossary On
Versions: 1 2 3 4 5 6 7 8 9 10 11 12 13 14 15 16 17 18 19 20 21 22 23 24 25 26 27
368
FTUS43 KLOT 162040 AAA
TAFDPA
TAF AMD
KDPA 162040Z 1621/1718 30012KT P6SM SCT035
     FM170100 25005KT P6SM SKC
     FM170500 20006KT P6SM FEW180 BKN250
     FM171600 20012KT P6SM BKN100=

USA.gov is the U.S. government's official web portal to all federal, state and local government web resources and services.